Time;durP1;ratioP1;P1;durP2;ratioP2;P2;SDS_P1;SDS_P2;PMS_P1;PMS_P2;Temp;Humidity;BMP_temperature;BMP_pressure;BME280_temperature;BME280_humidity;BME280_pressure;Samples;Min_cycle;Max_cycle;Signal;HPM_P1;HPM_P2
2023/07/10 00:02:09;;;;;;;10.93;9.83;;;21.30;99.90;;;;;;4996385;28;20482;-75
2023/07/10 00:04:37;;;;;;;10.13;9.10;;;21.30;99.90;;;;;;4996620;28;20421;-75
2023/07/10 00:07:06;;;;;;;10.27;9.27;;;21.30;99.90;;;;;;4996498;28;20473;-75
2023/07/10 00:09:35;;;;;;;11.33;9.30;;;21.20;99.90;;;;;;4994992;28;20472;-75
2023/07/10 00:12:04;;;;;;;11.03;9.70;;;21.20;99.90;;;;;;4996599;28;20472;-75
2023/07/10 00:14:34;;;;;;;11.30;10.20;;;21.20;99.90;;;;;;4996468;28;20539;-75
2023/07/10 00:17:03;;;;;;;10.63;9.63;;;21.20;99.90;;;;;;4996591;28;20963;-75
2023/07/10 00:19:31;;;;;;;10.60;9.50;;;21.20;99.90;;;;;;4994937;28;20978;-75
2023/07/10 00:21:59;;;;;;;11.23;10.00;;;21.20;99.90;;;;;;4996380;28;20473;-75
2023/07/10 00:24:27;;;;;;;11.60;10.40;;;21.20;99.90;;;;;;4995071;28;20879;-75
2023/07/10 00:26:57;;;;;;;12.20;11.10;;;21.20;99.90;;;;;;4996016;28;20472;-75
2023/07/10 00:29:31;;;;;;;12.83;11.00;;;21.20;99.90;;;;;;4995034;28;20461;-75
2023/07/10 00:32:02;;;;;;;11.03;9.97;;;21.20;99.90;;;;;;4999905;28;20452;-75
2023/07/10 00:34:30;;;;;;;13.27;10.90;;;21.20;99.90;;;;;;4996498;28;20449;-75
2023/07/10 00:36:59;;;;;;;12.30;11.00;;;21.20;99.90;;;;;;4997667;28;20437;-75
2023/07/10 00:39:29;;;;;;;12.80;10.93;;;21.20;99.90;;;;;;4996400;28;20480;-75
2023/07/10 00:42:05;;;;;;;11.00;9.97;;;21.20;99.90;;;;;;4995922;28;20914;-75
2023/07/10 00:44:37;;;;;;;11.30;10.20;;;21.20;99.90;;;;;;4994796;28;20452;-75
2023/07/10 00:47:11;;;;;;;12.57;11.47;;;21.10;99.90;;;;;;4994416;28;20488;-75
2023/07/10 00:49:44;;;;;;;14.90;13.67;;;21.10;99.90;;;;;;4994327;28;20469;-75
2023/07/10 00:52:17;;;;;;;16.53;15.13;;;21.10;99.90;;;;;;4994052;28;20493;-75
2023/07/10 00:54:49;;;;;;;17.87;16.27;;;21.00;99.90;;;;;;4994065;28;20443;-75
2023/07/10 00:57:21;;;;;;;16.73;15.33;;;20.90;99.90;;;;;;4994166;28;20544;-75
2023/07/10 00:59:52;;;;;;;22.10;20.20;;;20.90;99.90;;;;;;4995405;28;20507;-75
2023/07/10 01:02:23;;;;;;;24.90;22.57;;;20.80;99.90;;;;;;4995104;28;20468;-75
2023/07/10 01:04:56;;;;;;;25.10;23.10;;;20.80;99.90;;;;;;4995271;28;20429;-75
2023/07/10 01:07:26;;;;;;;27.70;25.30;;;20.80;99.90;;;;;;4995603;28;20820;-75
2023/07/10 01:09:58;;;;;;;25.63;23.57;;;20.80;99.90;;;;;;4993886;28;20464;-75
2023/07/10 01:12:29;;;;;;;26.70;24.13;;;20.70;99.90;;;;;;4993737;28;20528;-75
2023/07/10 01:14:57;;;;;;;25.73;23.53;;;20.70;99.90;;;;;;4995379;28;20479;-76
2023/07/10 01:17:27;;;;;;;24.30;22.23;;;20.70;99.90;;;;;;4993643;28;20499;-75
2023/07/10 01:19:59;;;;;;;24.53;22.53;;;20.70;99.90;;;;;;4994915;28;20588;-75
2023/07/10 01:22:29;;;;;;;24.53;22.53;;;20.60;99.90;;;;;;4995223;28;20918;-75
2023/07/10 01:24:59;;;;;;;26.10;23.57;;;20.60;99.90;;;;;;4995419;28;20422;-75
2023/07/10 01:27:29;;;;;;;25.30;23.17;;;20.60;99.90;;;;;;4994101;28;20803;-75
2023/07/10 01:30:03;;;;;;;24.63;22.57;;;20.60;99.90;;;;;;4994409;28;20503;-75
2023/07/10 01:32:32;;;;;;;24.33;22.27;;;20.60;99.90;;;;;;4993639;28;20441;-75
2023/07/10 01:35:05;;;;;;;24.73;22.50;;;20.60;99.90;;;;;;4995145;28;20441;-75
2023/07/10 01:37:35;;;;;;;26.53;24.23;;;20.60;99.90;;;;;;4994849;28;20887;-75
2023/07/10 01:40:03;;;;;;;27.40;24.73;;;20.70;99.90;;;;;;4993985;28;20559;-75
2023/07/10 01:42:32;;;;;;;23.03;21.10;;;20.70;99.90;;;;;;4994816;28;20469;-75
2023/07/10 01:45:00;;;;;;;24.87;22.70;;;20.60;99.90;;;;;;4993503;28;20444;-75
2023/07/10 01:47:30;;;;;;;24.47;22.37;;;20.60;99.90;;;;;;4993816;28;20456;-75
2023/07/10 01:50:00;;;;;;;24.53;22.47;;;20.70;99.90;;;;;;4994656;28;20564;-75
2023/07/10 01:52:28;;;;;;;25.37;23.27;;;20.70;99.90;;;;;;4993463;28;20472;-75
2023/07/10 01:54:58;;;;;;;24.23;22.03;;;20.70;99.90;;;;;;4994543;28;20472;-75
2023/07/10 01:57:27;;;;;;;25.13;23.03;;;20.70;99.90;;;;;;4995191;28;20444;-75
2023/07/10 01:59:55;;;;;;;26.00;23.70;;;20.70;99.90;;;;;;4994688;28;20942;-75
2023/07/10 02:02:24;;;;;;;26.23;23.67;;;20.70;99.90;;;;;;4994674;28;20864;-75
2023/07/10 02:04:53;;;;;;;26.33;24.00;;;20.70;99.90;;;;;;4993238;28;20449;-75
2023/07/10 02:07:21;;;;;;;26.20;23.83;;;20.70;99.90;;;;;;4993497;28;20547;-75
2023/07/10 02:09:51;;;;;;;25.43;23.17;;;20.70;99.90;;;;;;4993428;28;20462;-75
2023/07/10 02:12:20;;;;;;;27.80;25.30;;;20.60;99.90;;;;;;4993284;28;20862;-75
2023/07/10 02:14:49;;;;;;;28.50;26.13;;;20.60;99.90;;;;;;4995068;28;20456;-75
2023/07/10 02:17:17;;;;;;;26.87;24.53;;;20.60;99.90;;;;;;4998340;28;20824;-75
2023/07/10 02:19:45;;;;;;;28.17;25.73;;;20.60;99.90;;;;;;4997163;28;20472;-74
2023/07/10 02:22:13;;;;;;;28.53;25.87;;;20.60;99.90;;;;;;4997455;28;20488;-75
2023/07/10 02:24:42;;;;;;;30.90;28.00;;;20.50;99.90;;;;;;4998751;28;20437;-75
2023/07/10 02:27:10;;;;;;;29.60;26.83;;;20.50;99.90;;;;;;4998630;28;21005;-75
2023/07/10 02:29:39;;;;;;;27.07;24.67;;;20.50;99.90;;;;;;4997550;28;20822;-75
2023/07/10 02:32:08;;;;;;;26.83;24.73;;;20.50;99.90;;;;;;4997371;28;20452;-75
2023/07/10 02:34:37;;;;;;;28.30;25.83;;;20.50;99.90;;;;;;4998346;28;20444;-75
2023/07/10 02:37:05;;;;;;;28.53;25.97;;;20.50;99.90;;;;;;4999228;28;20464;-75
2023/07/10 02:39:35;;;;;;;28.10;25.57;;;20.50;99.90;;;;;;4998589;28;20456;-74
2023/07/10 02:42:03;;;;;;;27.47;24.77;;;20.50;99.90;;;;;;4998906;28;20548;-75
2023/07/10 02:44:31;;;;;;;28.30;25.90;;;20.50;99.90;;;;;;4996794;28;20464;-75
2023/07/10 02:47:01;;;;;;;29.33;26.83;;;20.50;99.90;;;;;;4998594;28;20975;-75
2023/07/10 02:49:29;;;;;;;29.70;26.80;;;20.50;99.90;;;;;;4997845;28;21066;-75
2023/07/10 02:51:57;;;;;;;29.27;26.57;;;20.50;99.90;;;;;;4997311;28;20448;-74
2023/07/10 02:54:25;;;;;;;31.10;28.30;;;20.40;99.90;;;;;;4997411;28;20547;-75
2023/07/10 02:56:53;;;;;;;30.23;27.63;;;20.40;99.90;;;;;;4997080;28;20450;-74
2023/07/10 02:59:27;;;;;;;32.37;29.27;;;20.40;99.90;;;;;;4998082;28;20500;-74
2023/07/10 03:01:55;;;;;;;31.30;28.20;;;20.40;99.90;;;;;;4997183;28;20499;-74
2023/07/10 03:04:25;;;;;;;32.63;29.47;;;20.40;99.90;;;;;;4998135;28;20563;-75
2023/07/10 03:06:53;;;;;;;31.57;28.67;;;20.40;99.90;;;;;;4997075;28;20459;-74
2023/07/10 03:09:21;;;;;;;31.10;28.23;;;20.40;99.90;;;;;;4996744;28;20473;-75
2023/07/10 03:11:50;;;;;;;32.83;29.80;;;20.40;99.90;;;;;;4996970;28;20504;-75
2023/07/10 03:14:18;;;;;;;35.47;32.17;;;20.40;99.90;;;;;;4996725;28;20475;-74
2023/07/10 03:16:47;;;;;;;32.60;29.53;;;20.40;99.90;;;;;;4997093;28;20484;-75
2023/07/10 03:19:15;;;;;;;33.50;30.43;;;20.40;99.90;;;;;;4996640;28;20913;-74
2023/07/10 03:21:45;;;;;;;32.67;29.77;;;20.40;99.90;;;;;;4996700;28;20449;-74
2023/07/10 03:24:13;;;;;;;34.37;31.17;;;20.40;99.90;;;;;;4996517;28;20469;-74
2023/07/10 03:26:42;;;;;;;34.23;30.90;;;20.40;99.90;;;;;;4995318;28;20444;-74
2023/07/10 03:29:12;;;;;;;35.00;31.50;;;20.40;99.90;;;;;;4997645;28;20491;-74
2023/07/10 03:31:41;;;;;;;33.20;30.20;;;20.30;99.90;;;;;;4997892;28;20431;-74
2023/07/10 03:34:12;;;;;;;32.37;29.40;;;20.30;99.90;;;;;;4996671;28;20471;-74
2023/07/10 03:36:40;;;;;;;33.33;30.17;;;20.30;99.90;;;;;;4996165;28;20449;-75
2023/07/10 03:39:12;;;;;;;32.77;29.67;;;20.30;99.90;;;;;;4997918;28;20465;-74
2023/07/10 03:41:40;;;;;;;35.50;32.30;;;20.30;99.90;;;;;;4996140;28;20524;-74
2023/07/10 03:44:09;;;;;;;35.67;32.33;;;20.30;99.90;;;;;;4996437;28;20475;-74
2023/07/10 03:46:38;;;;;;;34.33;31.03;;;20.30;99.90;;;;;;4997562;28;20506;-74
2023/07/10 03:49:06;;;;;;;35.60;31.77;;;20.30;99.90;;;;;;4997084;28;20457;-74
2023/07/10 03:51:34;;;;;;;35.60;32.23;;;20.30;99.90;;;;;;4999267;28;20471;-75
2023/07/10 03:54:02;;;;;;;35.20;31.60;;;20.30;99.90;;;;;;5000525;28;20448;-75
2023/07/10 03:56:32;;;;;;;33.57;30.47;;;20.30;99.90;;;;;;4998775;28;20468;-75
2023/07/10 03:59:00;;;;;;;35.13;31.63;;;20.30;99.90;;;;;;4997994;28;20571;-74
2023/07/10 04:01:28;;;;;;;34.63;31.27;;;20.20;99.90;;;;;;4997291;28;20476;-74
2023/07/10 04:03:57;;;;;;;34.57;31.23;;;20.20;99.90;;;;;;4995829;28;20849;-74
2023/07/10 04:06:25;;;;;;;31.83;29.03;;;20.20;99.90;;;;;;4997112;28;20441;-74
2023/07/10 04:08:53;;;;;;;33.67;30.50;;;20.20;99.90;;;;;;4996602;28;20994;-74
2023/07/10 04:11:23;;;;;;;31.37;28.07;;;20.20;99.90;;;;;;4996120;28;20495;-74
2023/07/10 04:13:52;;;;;;;29.87;27.07;;;20.20;99.90;;;;;;4997808;28;20449;-74
2023/07/10 04:16:23;;;;;;;30.30;27.10;;;20.20;99.90;;;;;;4996741;28;20448;-75
2023/07/10 04:18:53;;;;;;;30.90;27.80;;;20.20;99.90;;;;;;4996704;28;20475;-74
2023/07/10 04:21:23;;;;;;;31.97;28.87;;;20.20;99.90;;;;;;4996376;28;20483;-75
2023/07/10 04:23:52;;;;;;;29.27;26.60;;;20.20;99.90;;;;;;4996192;28;20534;-74
2023/07/10 04:26:22;;;;;;;30.60;27.50;;;20.20;99.90;;;;;;4995893;28;20607;-74
2023/07/10 04:28:53;;;;;;;28.57;25.77;;;20.20;99.90;;;;;;4995672;28;20479;-73
2023/07/10 04:31:23;;;;;;;28.57;25.70;;;20.10;99.90;;;;;;4995676;28;20527;-74
2023/07/10 04:33:52;;;;;;;27.57;24.87;;;20.10;99.90;;;;;;4995760;28;20471;-74
2023/07/10 04:36:21;;;;;;;27.20;24.60;;;20.10;99.90;;;;;;4995834;28;20540;-73
2023/07/10 04:38:50;;;;;;;26.43;23.73;;;20.10;99.90;;;;;;4996382;28;20560;-74
2023/07/10 04:41:21;;;;;;;25.73;23.23;;;20.10;99.90;;;;;;4996546;28;20536;-73
2023/07/10 04:43:49;;;;;;;25.10;22.50;;;20.10;99.90;;;;;;4996643;28;20461;-73
2023/07/10 04:46:21;;;;;;;25.33;22.80;;;20.10;99.90;;;;;;4995983;28;20443;-73
2023/07/10 04:48:49;;;;;;;25.47;22.97;;;20.10;99.90;;;;;;4995799;28;20966;-73
2023/07/10 04:51:20;;;;;;;24.47;22.10;;;20.10;99.90;;;;;;4995695;28;20441;-73
2023/07/10 04:53:48;;;;;;;24.73;22.43;;;20.10;99.90;;;;;;4996020;28;20905;-73
2023/07/10 04:56:18;;;;;;;22.00;20.00;;;20.10;99.90;;;;;;4995739;28;20436;-73
2023/07/10 04:58:50;;;;;;;23.27;21.10;;;20.10;99.90;;;;;;4996272;28;20456;-73
2023/07/10 05:01:21;;;;;;;23.87;21.60;;;20.10;99.90;;;;;;4996603;28;20441;-73
2023/07/10 05:03:50;;;;;;;22.30;20.00;;;20.10;99.90;;;;;;4996131;28;20551;-73
2023/07/10 05:06:19;;;;;;;21.63;19.60;;;20.10;99.90;;;;;;4995718;28;20525;-73
2023/07/10 05:08:47;;;;;;;22.97;20.87;;;20.10;99.90;;;;;;4996624;28;20563;-73
2023/07/10 05:11:15;;;;;;;24.17;21.80;;;20.10;99.90;;;;;;4996313;28;20437;-74
2023/07/10 05:13:44;;;;;;;23.77;21.30;;;20.10;99.90;;;;;;4996931;28;20450;-74
2023/07/10 05:16:12;;;;;;;24.20;21.63;;;20.20;99.90;;;;;;4996530;28;20453;-74
2023/07/10 05:18:41;;;;;;;22.87;20.67;;;20.10;99.90;;;;;;4995066;28;20460;-73
2023/07/10 05:21:09;;;;;;;22.50;20.10;;;20.20;99.90;;;;;;4995067;28;20527;-73
2023/07/10 05:23:38;;;;;;;22.93;20.53;;;20.20;99.90;;;;;;4995340;28;20836;-73
2023/07/10 05:26:09;;;;;;;24.53;22.03;;;20.20;99.90;;;;;;4994836;28;20815;-73
2023/07/10 05:28:38;;;;;;;25.20;22.60;;;20.20;99.90;;;;;;4994620;28;20468;-73
2023/07/10 05:31:08;;;;;;;25.30;22.60;;;20.20;99.90;;;;;;4994887;28;20469;-73
2023/07/10 05:33:37;;;;;;;23.90;21.33;;;20.10;99.90;;;;;;4994649;28;20475;-73
2023/07/10 05:36:11;;;;;;;27.37;21.10;;;20.10;99.90;;;;;;4994786;28;20469;-72
2023/07/10 05:38:39;;;;;;;22.20;19.80;;;20.10;99.90;;;;;;4994636;28;20830;-72
2023/07/10 05:41:08;;;;;;;23.47;20.67;;;20.10;99.90;;;;;;4995098;28;20499;-72
2023/07/10 05:43:37;;;;;;;26.40;21.10;;;20.10;99.90;;;;;;4994503;28;20437;-73
2023/07/10 05:46:05;;;;;;;26.13;23.43;;;20.10;99.90;;;;;;4994529;28;20832;-76
2023/07/10 05:48:34;;;;;;;32.10;22.43;;;20.10;99.90;;;;;;4992711;28;20441;-75
2023/07/10 05:51:02;;;;;;;26.30;20.93;;;20.10;99.90;;;;;;4993200;28;20483;-75
2023/07/10 05:53:33;;;;;;;24.17;20.70;;;20.10;99.90;;;;;;4993245;28;20874;-75
2023/07/10 05:56:03;;;;;;;24.70;21.83;;;20.10;99.90;;;;;;4993376;28;20437;-75
2023/07/10 05:58:34;;;;;;;24.77;21.93;;;20.10;99.90;;;;;;4994630;28;20421;-75
2023/07/10 06:01:03;;;;;;;24.60;21.00;;;20.20;99.90;;;;;;4994606;28;20811;-75
2023/07/10 06:03:33;;;;;;;24.00;21.40;;;20.20;99.90;;;;;;4994871;28;20440;-75
2023/07/10 06:06:03;;;;;;;24.57;21.70;;;20.20;99.90;;;;;;4994632;28;20456;-75
2023/07/10 06:08:35;;;;;;;23.23;20.70;;;20.30;99.90;;;;;;4994224;28;20969;-76
2023/07/10 06:11:04;;;;;;;20.73;18.37;;;20.30;99.90;;;;;;4994919;28;20794;-75
2023/07/10 06:13:32;;;;;;;23.30;20.87;;;20.40;99.90;;;;;;4992913;28;20507;-75
2023/07/10 06:16:01;;;;;;;23.93;20.20;;;20.50;99.90;;;;;;4993993;28;20449;-75
2023/07/10 06:18:29;;;;;;;20.47;18.33;;;20.50;99.90;;;;;;4994140;28;20436;-76
2023/07/10 06:20:59;;;;;;;21.90;18.17;;;20.60;99.90;;;;;;4992621;28;20556;-75
2023/07/10 06:23:29;;;;;;;20.23;16.90;;;20.60;99.90;;;;;;4994213;28;20484;-75
2023/07/10 06:26:00;;;;;;;19.90;17.90;;;20.60;99.90;;;;;;4993911;28;20464;-75
2023/07/10 06:28:31;;;;;;;18.67;16.60;;;20.60;99.90;;;;;;4994141;28;20482;-75
2023/07/10 06:31:02;;;;;;;18.00;16.07;;;20.60;99.90;;;;;;4992533;28;20480;-75
2023/07/10 06:33:31;;;;;;;19.83;15.47;;;20.60;99.90;;;;;;4993745;28;20513;-76
2023/07/10 06:36:00;;;;;;;18.80;14.13;;;20.60;99.90;;;;;;4992319;28;21016;-76
2023/07/10 06:38:29;;;;;;;20.47;15.00;;;20.70;99.90;;;;;;4993664;28;20779;-75
2023/07/10 06:40:59;;;;;;;16.00;14.30;;;20.70;99.90;;;;;;4993971;28;20448;-75
2023/07/10 06:43:27;;;;;;;19.50;14.67;;;20.80;99.90;;;;;;4992465;28;20444;-75
2023/07/10 06:45:56;;;;;;;18.20;13.43;;;20.90;99.90;;;;;;4993519;28;20468;-75
2023/07/10 06:48:25;;;;;;;14.17;11.37;;;21.00;99.90;;;;;;4993554;28;20479;-76
2023/07/10 06:50:55;;;;;;;17.10;12.70;;;21.10;99.90;;;;;;4992265;28;20467;-75
2023/07/10 06:53:25;;;;;;;14.67;11.27;;;21.10;99.90;;;;;;4994121;28;20431;-76
2023/07/10 06:55:57;;;;;;;14.97;10.00;;;21.10;99.90;;;;;;4993868;28;20425;-75
2023/07/10 06:58:29;;;;;;;13.97;10.40;;;21.10;99.90;;;;;;4992162;28;20452;-75
2023/07/10 07:00:57;;;;;;;13.10;9.80;;;21.10;99.90;;;;;;4995927;28;20516;-76
2023/07/10 07:03:26;;;;;;;11.77;9.23;;;21.10;99.90;;;;;;4998151;28;20505;-75
2023/07/10 07:05:54;;;;;;;11.77;9.47;;;21.20;99.90;;;;;;4997628;28;20475;-75
2023/07/10 07:08:23;;;;;;;14.23;9.50;;;21.20;99.90;;;;;;4997971;28;20890;-77
2023/07/10 07:10:53;;;;;;;12.40;9.37;;;21.30;99.90;;;;;;4997743;28;20483;-76
2023/07/10 07:13:22;;;;;;;11.67;9.50;;;21.30;99.90;;;;;;4997194;28;21029;-75
2023/07/10 07:15:52;;;;;;;11.77;8.90;;;21.30;99.90;;;;;;5000922;28;20468;-74
2023/07/10 07:18:21;;;;;;;10.60;7.97;;;21.30;99.90;;;;;;4998110;28;20484;-76
2023/07/10 07:20:50;;;;;;;12.70;8.37;;;21.30;99.90;;;;;;4998773;28;20452;-75
2023/07/10 07:23:18;;;;;;;10.93;8.90;;;21.20;99.90;;;;;;4997948;28;20523;-75
2023/07/10 07:25:46;;;;;;;11.77;8.30;;;21.20;99.90;;;;;;4997738;28;20519;-76
2023/07/10 07:28:14;;;;;;;9.60;7.40;;;21.30;99.90;;;;;;4997232;28;20437;-74
2023/07/10 07:30:47;;;;;;;10.13;7.30;;;21.30;99.90;;;;;;4996095;28;20623;-74
2023/07/10 07:33:19;;;;;;;8.90;7.50;;;21.30;99.90;;;;;;4996913;28;20887;-75
2023/07/10 07:35:47;;;;;;;10.57;7.20;;;21.30;99.90;;;;;;4996930;28;20417;-75
2023/07/10 07:38:15;;;;;;;9.93;7.20;;;21.40;99.90;;;;;;4996873;28;20440;-76
2023/07/10 07:40:44;;;;;;;10.80;7.50;;;21.40;99.90;;;;;;4995525;28;21109;-76
2023/07/10 07:43:12;;;;;;;10.17;7.90;;;21.50;99.90;;;;;;4997398;28;20499;-75
2023/07/10 07:45:40;;;;;;;9.70;6.73;;;21.60;99.90;;;;;;4979603;28;20492;-75
2023/07/10 07:48:08;;;;;;;6.97;4.73;;;21.70;99.90;;;;;;4995969;28;20451;-76
2023/07/10 07:50:38;;;;;;;8.23;5.23;;;21.80;99.90;;;;;;4995360;28;20493;-76
2023/07/10 07:53:06;;;;;;;6.00;4.27;;;21.90;99.90;;;;;;4995555;28;20970;-76
2023/07/10 07:55:39;;;;;;;6.37;4.23;;;22.00;99.90;;;;;;4996782;28;20441;-77
2023/07/10 07:58:08;;;;;;;8.07;3.83;;;22.20;99.90;;;;;;4995180;28;20523;-76
2023/07/10 08:00:36;;;;;;;6.43;4.80;;;22.30;99.90;;;;;;4995219;28;20464;-76
2023/07/10 08:03:04;;;;;;;7.43;4.90;;;22.30;99.90;;;;;;4996519;28;20440;-75
2023/07/10 08:05:32;;;;;;;6.27;4.20;;;22.40;99.90;;;;;;4995181;28;20564;-76
2023/07/10 08:08:07;;;;;;;8.70;6.07;;;22.30;99.90;;;;;;4995190;28;20434;-76
2023/07/10 08:10:36;;;;;;;10.37;6.00;;;22.30;99.90;;;;;;4996312;28;20468;-76
2023/07/10 08:13:05;;;;;;;7.20;5.77;;;22.30;99.90;;;;;;4994368;28;20449;-76
2023/07/10 08:15:34;;;;;;;8.27;5.40;;;22.30;99.90;;;;;;4994709;28;20455;-76
2023/07/10 08:18:02;;;;;;;9.70;5.67;;;22.30;99.90;;;;;;4995201;28;20880;-75
2023/07/10 08:20:31;;;;;;;6.77;4.70;;;22.30;99.90;;;;;;4994786;28;20473;-76
2023/07/10 08:22:59;;;;;;;8.97;4.73;;;22.30;99.90;;;;;;4996527;28;20444;-75
2023/07/10 08:25:29;;;;;;;7.13;5.07;;;22.40;99.90;;;;;;4996316;28;20441;-75
2023/07/10 08:27:58;;;;;;;7.67;5.77;;;22.40;99.90;;;;;;4994703;28;20863;-75
2023/07/10 08:30:27;;;;;;;7.07;5.37;;;22.40;99.90;;;;;;4994352;28;20465;-76
2023/07/10 08:32:56;;;;;;;11.00;6.50;;;22.40;99.90;;;;;;4994593;28;20468;-76
2023/07/10 08:35:24;;;;;;;9.13;6.50;;;22.40;99.90;;;;;;4996674;28;20441;-75
2023/07/10 08:37:52;;;;;;;8.63;4.77;;;22.40;99.90;;;;;;4994428;28;20456;-77
2023/07/10 08:40:30;;;;;;;7.30;3.77;;;22.40;99.90;;;;;;4994298;28;20480;-74
2023/07/10 08:43:05;;;;;;;6.07;4.00;;;22.50;99.90;;;;;;4995848;28;20471;-75
2023/07/10 08:45:38;;;;;;;5.70;2.90;;;22.50;99.90;;;;;;4994043;28;20441;-75
2023/07/10 08:48:23;;;;;;;6.77;3.63;;;22.50;99.90;;;;;;4994355;28;20440;-77
2023/07/10 08:50:51;;;;;;;8.60;3.30;;;22.60;99.90;;;;;;4995902;28;20417;-75
2023/07/10 08:53:25;;;;;;;7.03;4.00;;;22.60;99.90;;;;;;4994055;28;20448;-77
2023/07/10 08:56:01;;;;;;;6.90;3.90;;;22.60;99.90;;;;;;4995881;28;20416;-75
2023/07/10 08:58:35;;;;;;;6.23;3.53;;;22.60;99.90;;;;;;4994278;28;20441;-76
2023/07/10 09:01:10;;;;;;;5.63;3.97;;;22.60;99.90;;;;;;4995976;28;20846;-76
2023/07/10 09:03:42;;;;;;;6.80;4.07;;;22.60;99.90;;;;;;4995449;28;20456;-76
2023/07/10 09:06:22;;;;;;;6.93;4.60;;;22.70;99.90;;;;;;4995253;28;20457;-76
2023/07/10 09:08:53;;;;;;;6.17;3.50;;;22.70;99.90;;;;;;4993773;28;20464;-78
2023/07/10 09:11:22;;;;;;;8.47;4.67;;;22.70;99.90;;;;;;4995448;28;20484;-74
2023/07/10 09:13:57;;;;;;;7.20;4.63;;;22.60;99.90;;;;;;4993755;28;20452;-74
2023/07/10 09:16:27;;;;;;;9.13;4.70;;;22.60;99.90;;;;;;4994649;28;20537;-73
2023/07/10 09:19:03;;;;;;;5.90;3.90;;;22.60;99.90;;;;;;4995848;28;20452;-74
2023/07/10 09:21:33;;;;;;;6.47;4.00;;;22.60;99.90;;;;;;4996401;28;20483;-75
2023/07/10 09:24:02;;;;;;;7.10;4.50;;;22.60;99.90;;;;;;4995521;28;20441;-73
2023/07/10 09:26:37;;;;;;;6.80;3.80;;;22.60;99.90;;;;;;4995547;28;20476;-74
2023/07/10 09:29:28;;;;;;;7.60;3.63;;;22.70;99.90;;;;;;4995383;28;20456;-74
2023/07/10 09:32:03;;;;;;;6.33;3.47;;;22.80;99.90;;;;;;4995545;28;20956;-73
2023/07/10 09:34:33;;;;;;;8.67;2.90;;;22.90;99.90;;;;;;4996109;28;20515;-74
2023/07/10 09:37:05;;;;;;;7.40;3.60;;;22.90;99.90;;;;;;4995609;28;20447;-74
2023/07/10 09:39:33;;;;;;;6.80;3.60;;;22.90;99.90;;;;;;4995324;28;20966;-74
2023/07/10 09:42:03;;;;;;;7.97;3.57;;;23.00;99.90;;;;;;4994359;28;20444;-74
2023/07/10 09:44:36;;;;;;;8.80;4.57;;;23.00;99.90;;;;;;4994956;28;20516;-74
2023/07/10 09:47:10;;;;;;;6.80;3.37;;;23.00;99.90;;;;;;4995061;28;20465;-74
2023/07/10 09:49:43;;;;;;;6.80;3.40;;;23.10;99.90;;;;;;4993817;28;20467;-74
2023/07/10 09:52:23;;;;;;;7.40;3.50;;;23.10;99.90;;;;;;4995162;28;20429;-73
2023/07/10 09:54:59;;;;;;;6.90;2.93;;;23.10;99.90;;;;;;4995766;28;20451;-74
2023/07/10 09:57:28;;;;;;;5.97;2.53;;;23.10;99.90;;;;;;4995198;28;20782;-74
2023/07/10 10:00:00;;;;;;;7.00;2.60;;;23.30;99.90;;;;;;4993604;28;20465;-74
2023/07/10 10:02:35;;;;;;;6.27;2.70;;;23.30;99.90;;;;;;4995424;28;20554;-74
2023/07/10 10:05:15;;;;;;;4.93;2.33;;;23.40;99.90;;;;;;4995152;28;20431;-74
2023/07/10 10:07:45;;;;;;;7.37;3.17;;;23.40;99.90;;;;;;4995516;28;20456;-74
2023/07/10 10:10:27;;;;;;;6.77;2.57;;;23.40;99.90;;;;;;4994784;28;20536;-74
2023/07/10 10:13:05;;;;;;;5.83;2.73;;;23.50;99.90;;;;;;4995337;28;20425;-73
2023/07/10 10:15:52;;;;;;;7.60;3.60;;;23.60;99.90;;;;;;4993566;28;20532;-74
2023/07/10 10:18:37;;;;;;;8.27;3.60;;;23.60;99.90;;;;;;4995561;28;20504;-74
2023/07/10 10:21:06;;;;;;;5.50;3.03;;;23.70;99.90;;;;;;4995498;28;20429;-74
2023/07/10 10:23:36;;;;;;;9.10;2.63;;;23.80;99.90;;;;;;4994577;28;20499;-74
2023/07/10 10:26:32;;;;;;;6.63;2.80;;;23.80;99.90;;;;;;4995214;28;20425;-74
2023/07/10 10:29:42;;;;;;;6.47;2.80;;;23.80;99.90;;;;;;4993488;28;20461;-74
2023/07/10 10:32:23;;;;;;;7.07;3.17;;;23.80;99.90;;;;;;4983771;28;20466;-73
2023/07/10 10:35:00;;;;;;;5.83;3.33;;;23.80;99.90;;;;;;4995055;28;20428;-74
2023/07/10 10:37:40;;;;;;;7.37;2.90;;;23.90;99.90;;;;;;5004032;28;20448;-74
2023/07/10 10:40:21;;;;;;;6.40;3.20;;;24.00;99.90;;;;;;5000900;28;20492;-74
2023/07/10 10:42:56;;;;;;;7.10;3.30;;;24.00;99.90;;;;;;4999904;28;20417;-74
2023/07/10 10:45:31;;;;;;;8.07;3.40;;;24.10;99.90;;;;;;4997545;28;20472;-74
2023/07/10 10:48:15;;;;;;;6.53;2.63;;;24.20;99.90;;;;;;4998098;28;20455;-74
2023/07/10 10:50:53;;;;;;;5.37;2.53;;;24.20;99.90;;;;;;4997368;28;20463;-74
2023/07/10 10:53:49;;;;;;;5.83;2.60;;;24.20;99.90;;;;;;4997771;28;20761;-74
2023/07/10 10:56:25;;;;;;;5.43;2.83;;;24.10;99.90;;;;;;4996582;28;20503;-74
2023/07/10 10:59:04;;;;;;;4.70;2.50;;;24.10;99.90;;;;;;4996044;28;20551;-74
2023/07/10 11:01:39;;;;;;;7.00;3.13;;;24.10;99.90;;;;;;4997883;28;20433;-76
2023/07/10 11:04:19;;;;;;;5.53;2.80;;;24.20;99.90;;;;;;4997401;28;20442;-74
2023/07/10 11:06:51;;;;;;;6.73;2.90;;;24.20;99.90;;;;;;4997392;28;20449;-74
2023/07/10 11:09:23;;;;;;;6.23;2.90;;;24.20;99.90;;;;;;4997144;28;20452;-74
2023/07/10 11:11:54;;;;;;;8.00;2.80;;;24.20;99.90;;;;;;4997337;28;20425;-73
2023/07/10 11:14:23;;;;;;;5.60;2.73;;;24.30;99.90;;;;;;4996919;28;20523;-74
2023/07/10 11:16:54;;;;;;;5.23;2.50;;;24.30;99.90;;;;;;4997092;28;20459;-75
2023/07/10 11:19:27;;;;;;;7.20;2.83;;;24.30;99.90;;;;;;4997023;28;20462;-75
2023/07/10 11:21:56;;;;;;;7.13;3.23;;;24.40;99.90;;;;;;4995611;28;20441;-74
2023/07/10 11:24:34;;;;;;;7.10;3.00;;;24.50;99.90;;;;;;4996908;28;20934;-74
2023/07/10 11:27:11;;;;;;;5.23;2.63;;;24.50;99.90;;;;;;4997113;28;20475;-74
2023/07/10 11:29:42;;;;;;;7.57;2.67;;;24.60;99.90;;;;;;4996534;28;20456;-74
2023/07/10 11:32:16;;;;;;;6.47;2.53;;;24.70;99.90;;;;;;4997346;28;20799;-74
2023/07/10 11:34:55;;;;;;;6.80;3.30;;;24.80;99.90;;;;;;4996939;28;20422;-74
2023/07/10 11:37:57;;;;;;;5.87;3.00;;;24.90;99.90;;;;;;4996881;28;20447;-74
2023/07/10 11:40:49;;;;;;;5.90;2.63;;;25.00;99.90;;;;;;4996525;28;20472;-74
2023/07/10 11:43:54;;;;;;;6.43;2.83;;;25.10;99.90;;;;;;4996615;28;20453;-75
2023/07/10 11:46:34;;;;;;;7.80;3.00;;;25.20;99.90;;;;;;4996265;28;20464;-75
2023/07/10 11:49:13;;;;;;;5.83;2.40;;;25.30;99.90;;;;;;4996061;28;20530;-74
2023/07/10 11:51:42;;;;;;;7.03;3.07;;;25.20;99.90;;;;;;4996385;28;20425;-74
2023/07/10 11:54:38;;;;;;;7.20;3.83;;;25.10;99.90;;;;;;4996460;28;20468;-74
2023/07/10 11:57:14;;;;;;;7.50;3.20;;;25.20;99.90;;;;;;4972989;28;20559;-75
2023/07/10 11:59:50;;;;;;;6.50;3.20;;;25.20;99.90;;;;;;4996013;28;20503;-75
2023/07/10 12:02:33;;;;;;;5.90;2.60;;;25.20;99.90;;;;;;4996251;28;20512;-75
2023/07/10 12:05:02;;;;;;;7.13;3.53;;;25.20;99.90;;;;;;4996474;28;20520;-75
2023/07/10 12:07:31;;;;;;;5.80;2.30;;;25.30;99.90;;;;;;4995977;28;20472;-74
2023/07/10 12:10:00;;;;;;;6.43;2.37;;;25.30;99.90;;;;;;4995995;28;20871;-75
2023/07/10 12:12:34;;;;;;;5.10;2.30;;;25.40;99.90;;;;;;4996513;28;20452;-74
2023/07/10 12:15:04;;;;;;;5.90;2.60;;;25.50;99.90;;;;;;4996178;28;20891;-74
2023/07/10 12:17:33;;;;;;;6.60;2.73;;;25.60;99.90;;;;;;4995947;28;20445;-74
2023/07/10 12:20:06;;;;;;;6.10;2.50;;;25.60;99.90;;;;;;4995666;28;20536;-74
2023/07/10 12:22:39;;;;;;;5.17;2.27;;;25.50;99.90;;;;;;4994393;28;20457;-75
2023/07/10 12:25:12;;;;;;;5.90;2.63;;;25.50;99.90;;;;;;4996251;28;20421;-75
2023/07/10 12:27:41;;;;;;;7.30;2.73;;;25.40;99.90;;;;;;4995595;28;20969;-75
2023/07/10 12:30:19;;;;;;;6.50;2.70;;;25.40;99.90;;;;;;4994255;28;20468;-75
2023/07/10 12:32:49;;;;;;;6.83;2.60;;;25.40;99.90;;;;;;4995804;28;20924;-74
2023/07/10 12:35:24;;;;;;;8.00;2.43;;;25.40;99.90;;;;;;4996007;28;20531;-75
2023/07/10 12:37:54;;;;;;;5.80;3.00;;;25.50;99.90;;;;;;4994161;28;20444;-74
2023/07/10 12:40:22;;;;;;;11.13;2.80;;;25.50;99.90;;;;;;4995211;28;20487;-75
2023/07/10 12:42:50;;;;;;;5.33;2.83;;;25.60;99.90;;;;;;4994298;28;20449;-74
2023/07/10 12:45:29;;;;;;;6.50;2.53;;;25.70;99.90;;;;;;4994087;28;20455;-75
2023/07/10 12:48:06;;;;;;;7.43;2.80;;;25.80;99.90;;;;;;4995543;28;20946;-74
2023/07/10 12:50:40;;;;;;;5.90;2.70;;;25.80;99.90;;;;;;4993991;28;20472;-75
2023/07/10 12:53:20;;;;;;;6.53;2.80;;;25.80;99.90;;;;;;4995460;28;20842;-74
2023/07/10 12:55:52;;;;;;;5.40;2.60;;;25.80;99.90;;;;;;4995144;28;20428;-74
2023/07/10 12:58:36;;;;;;;5.23;2.50;;;25.80;99.90;;;;;;4995330;28;20445;-75